Decoded Metar for WSSL (SINGAPORE in SINGAPORE) (IATA:XSP) | Meteo·Mobile Aviation Weather
aviador You're here:

WSSL Decoded Metar

SINGAPORE in SINGAPORE
Report Time2019-10-22 14:00:00
UTC Time2019-10-22 14:31:44
Flight Rules vfr VFR
WindVRB at 02 kt
Visibility9000 m
Phenomena:Light Rain
Clouds:Few 012 Hf
Scattered 018 Hf
Broken 180 Hf
Expected CloudBase > 400 ft AGL from Temp-Dew spread
Ceiling18,000 ft
Temp25°C (ISA +10)
Dew Point24°C (94% RH)
QNH1011 hPa
Density Alt1,673 ft
Elevation46 ft
Report Wrong Elevation
Raw Report
WSSL 221400Z VRB02KT 9000 -RA FEW012 SCT018 BKN180 25/24 Q1011
RERA=

Extra information for WSSL:More info

Metar Taf Metar & Taf Last 4 Metars F.Rules Stats Wind Profile Meteogram Temp Stats Airport Information Weather charts Add Link Nearby VenuesMetar ALERT Operation Metar Decoded Social comments